In Rescue
 
Open Full Screen Window  High Contrast Mode
Wind Gusting 00 knots
11
February 25, 2021 3:37 PM CST
Weather Information
Wind Direction
  220 °
Wind Speed
  11 kt (13 mph)
Wind Gust
  00 kt (0 mph)
Altimeter
30.22 in
Visibility
10 SM
Temperature
02° C
36° F
Dewpoint
-04° C
25° F
Humidity
65%
1hr Rain Fall
00.00 in.
24hr Rain Fall
00.00 in.
Sky Condition
Clear
VFR

METAR KMWM 252137Z AUTO 22011KT 10SM CLR 02/M04 A3022 RMK AO2

FAA Disclaimer: The data displayed is for advisory purposes only and is not to be used for flight planning or operations.